sensor_id;sensor_type;location;lat;lon;timestamp;temperature;humidity
24632;DHT22;59977;48.782;9.190;2024-02-23T00:00:28;8.30;99.90
24632;DHT22;59977;48.782;9.190;2024-02-23T00:02:54;8.30;99.90
24632;DHT22;59977;48.782;9.190;2024-02-23T00:05:21;8.40;99.90
24632;DHT22;59977;48.782;9.190;2024-02-23T00:07:47;8.30;99.90
24632;DHT22;59977;48.782;9.190;2024-02-23T00:10:13;8.30;99.90
24632;DHT22;59977;48.782;9.190;2024-02-23T00:12:38;8.30;99.90
24632;DHT22;59977;48.782;9.190;2024-02-23T00:15:04;8.20;99.90
24632;DHT22;59977;48.782;9.190;2024-02-23T00:17:30;8.30;99.90
24632;DHT22;59977;48.782;9.190;2024-02-23T00:19:55;8.30;99.90
24632;DHT22;59977;48.782;9.190;2024-02-23T00:22:21;8.20;99.90
24632;DHT22;59977;48.782;9.190;2024-02-23T00:24:47;8.20;99.90
24632;DHT22;59977;48.782;9.190;2024-02-23T00:27:12;9.10;99.90
24632;DHT22;59977;48.782;9.190;2024-02-23T00:29:38;8.20;99.90
24632;DHT22;59977;48.782;9.190;2024-02-23T00:32:04;8.20;99.90
24632;DHT22;59977;48.782;9.190;2024-02-23T00:34:29;8.20;99.90
24632;DHT22;59977;48.782;9.190;2024-02-23T00:36:57;8.30;99.90
24632;DHT22;59977;48.782;9.190;2024-02-23T00:39:22;8.40;99.90
24632;DHT22;59977;48.782;9.190;2024-02-23T00:41:48;8.60;99.90
24632;DHT22;59977;48.782;9.190;2024-02-23T00:44:14;8.20;99.90
24632;DHT22;59977;48.782;9.190;2024-02-23T00:46:40;8.20;99.90
24632;DHT22;59977;48.782;9.190;2024-02-23T00:49:06;8.20;99.90
24632;DHT22;59977;48.782;9.190;2024-02-23T00:51:31;8.20;99.90
24632;DHT22;59977;48.782;9.190;2024-02-23T00:53:57;9.00;99.90
24632;DHT22;59977;48.782;9.190;2024-02-23T00:56:23;8.20;99.90
24632;DHT22;59977;48.782;9.190;2024-02-23T00:58:49;8.20;99.90
24632;DHT22;59977;48.782;9.190;2024-02-23T01:01:14;8.20;99.90
24632;DHT22;59977;48.782;9.190;2024-02-23T01:03:40;8.20;99.90
24632;DHT22;59977;48.782;9.190;2024-02-23T01:06:05;9.30;99.90
24632;DHT22;59977;48.782;9.190;2024-02-23T01:08:31;8.20;99.90
24632;DHT22;59977;48.782;9.190;2024-02-23T01:10:57;8.20;99.90
24632;DHT22;59977;48.782;9.190;2024-02-23T01:13:22;8.80;99.90
24632;DHT22;59977;48.782;9.190;2024-02-23T01:15:48;8.60;99.90
24632;DHT22;59977;48.782;9.190;2024-02-23T01:18:14;8.20;99.90
24632;DHT22;59977;48.782;9.190;2024-02-23T01:20:39;8.20;99.90
24632;DHT22;59977;48.782;9.190;2024-02-23T01:23:08;8.20;99.90
24632;DHT22;59977;48.782;9.190;2024-02-23T01:25:33;8.20;99.90
24632;DHT22;59977;48.782;9.190;2024-02-23T01:28:00;8.20;99.90
24632;DHT22;59977;48.782;9.190;2024-02-23T01:30:26;8.30;99.90
24632;DHT22;59977;48.782;9.190;2024-02-23T01:32:51;8.40;99.90
24632;DHT22;59977;48.782;9.190;2024-02-23T01:35:17;8.60;99.90
24632;DHT22;59977;48.782;9.190;2024-02-23T01:37:43;8.20;99.90
24632;DHT22;59977;48.782;9.190;2024-02-23T01:40:09;8.20;99.90
24632;DHT22;59977;48.782;9.190;2024-02-23T01:42:35;8.20;99.90
24632;DHT22;59977;48.782;9.190;2024-02-23T01:45:00;8.80;99.90
24632;DHT22;59977;48.782;9.190;2024-02-23T01:47:28;8.70;99.90
24632;DHT22;59977;48.782;9.190;2024-02-23T01:49:55;8.20;99.90
24632;DHT22;59977;48.782;9.190;2024-02-23T01:52:21;9.50;99.90
24632;DHT22;59977;48.782;9.190;2024-02-23T01:54:47;8.30;99.90
24632;DHT22;59977;48.782;9.190;2024-02-23T01:57:14;8.50;99.90
24632;DHT22;59977;48.782;9.190;2024-02-23T01:59:40;8.30;99.90
24632;DHT22;59977;48.782;9.190;2024-02-23T02:02:06;8.30;99.90
24632;DHT22;59977;48.782;9.190;2024-02-23T02:04:31;8.30;99.90
24632;DHT22;59977;48.782;9.190;2024-02-23T02:06:58;8.30;99.90
24632;DHT22;59977;48.782;9.190;2024-02-23T02:09:25;9.10;99.90
24632;DHT22;59977;48.782;9.190;2024-02-23T02:11:51;8.30;99.90
24632;DHT22;59977;48.782;9.190;2024-02-23T02:14:17;8.30;99.90
24632;DHT22;59977;48.782;9.190;2024-02-23T02:16:43;8.30;99.90
24632;DHT22;59977;48.782;9.190;2024-02-23T02:19:12;8.20;99.90
24632;DHT22;59977;48.782;9.190;2024-02-23T02:21:38;8.20;99.90
24632;DHT22;59977;48.782;9.190;2024-02-23T02:24:04;8.20;99.90
24632;DHT22;59977;48.782;9.190;2024-02-23T02:26:31;8.20;99.90
24632;DHT22;59977;48.782;9.190;2024-02-23T02:28:56;8.70;99.90
24632;DHT22;59977;48.782;9.190;2024-02-23T02:31:22;8.20;99.90
24632;DHT22;59977;48.782;9.190;2024-02-23T02:33:48;8.40;99.90
24632;DHT22;59977;48.782;9.190;2024-02-23T02:36:13;8.30;99.90
24632;DHT22;59977;48.782;9.190;2024-02-23T02:38:39;8.30;99.90
24632;DHT22;59977;48.782;9.190;2024-02-23T02:41:05;8.10;99.90
24632;DHT22;59977;48.782;9.190;2024-02-23T02:43:31;8.10;99.90
24632;DHT22;59977;48.782;9.190;2024-02-23T02:45:57;8.10;99.90
24632;DHT22;59977;48.782;9.190;2024-02-23T02:48:23;8.00;99.90
24632;DHT22;59977;48.782;9.190;2024-02-23T02:50:49;8.70;99.90
24632;DHT22;59977;48.782;9.190;2024-02-23T02:53:15;8.00;99.90
24632;DHT22;59977;48.782;9.190;2024-02-23T02:55:44;8.00;99.90
24632;DHT22;59977;48.782;9.190;2024-02-23T02:58:11;9.50;99.90
24632;DHT22;59977;48.782;9.190;2024-02-23T03:00:38;8.00;99.90
24632;DHT22;59977;48.782;9.190;2024-02-23T03:03:03;8.00;99.90
24632;DHT22;59977;48.782;9.190;2024-02-23T03:05:29;7.90;99.90
24632;DHT22;59977;48.782;9.190;2024-02-23T03:07:55;8.20;99.90
24632;DHT22;59977;48.782;9.190;2024-02-23T03:10:20;8.20;99.90
24632;DHT22;59977;48.782;9.190;2024-02-23T03:12:46;8.50;99.90
24632;DHT22;59977;48.782;9.190;2024-02-23T03:15:11;7.90;99.90
24632;DHT22;59977;48.782;9.190;2024-02-23T03:17:38;8.00;99.90
24632;DHT22;59977;48.782;9.190;2024-02-23T03:20:05;8.20;99.90
24632;DHT22;59977;48.782;9.190;2024-02-23T03:22:34;7.90;99.90
24632;DHT22;59977;48.782;9.190;2024-02-23T03:24:59;7.90;99.90
24632;DHT22;59977;48.782;9.190;2024-02-23T03:27:28;7.90;99.90
24632;DHT22;59977;48.782;9.190;2024-02-23T03:29:57;7.90;99.90
24632;DHT22;59977;48.782;9.190;2024-02-23T03:32:22;8.70;99.90
24632;DHT22;59977;48.782;9.190;2024-02-23T03:34:48;7.90;99.90
24632;DHT22;59977;48.782;9.190;2024-02-23T03:37:14;7.90;99.90
24632;DHT22;59977;48.782;9.190;2024-02-23T03:39:39;7.90;99.90
24632;DHT22;59977;48.782;9.190;2024-02-23T03:42:05;7.80;99.90
24632;DHT22;59977;48.782;9.190;2024-02-23T03:44:30;7.80;99.90
24632;DHT22;59977;48.782;9.190;2024-02-23T03:46:57;7.80;99.90
24632;DHT22;59977;48.782;9.190;2024-02-23T03:49:22;8.60;99.90
24632;DHT22;59977;48.782;9.190;2024-02-23T03:51:48;7.80;99.90
24632;DHT22;59977;48.782;9.190;2024-02-23T03:54:13;7.80;99.90
24632;DHT22;59977;48.782;9.190;2024-02-23T03:56:42;7.80;99.90
24632;DHT22;59977;48.782;9.190;2024-02-23T03:59:09;7.80;99.90
24632;DHT22;59977;48.782;9.190;2024-02-23T04:01:36;7.80;99.90
24632;DHT22;59977;48.782;9.190;2024-02-23T04:04:02;7.70;99.90
24632;DHT22;59977;48.782;9.190;2024-02-23T04:06:28;7.70;99.90
24632;DHT22;59977;48.782;9.190;2024-02-23T04:08:55;7.70;99.90
24632;DHT22;59977;48.782;9.190;2024-02-23T04:11:20;7.70;99.90
24632;DHT22;59977;48.782;9.190;2024-02-23T04:13:46;7.70;99.90
24632;DHT22;59977;48.782;9.190;2024-02-23T04:16:12;8.50;99.90
24632;DHT22;59977;48.782;9.190;2024-02-23T04:18:37;7.90;99.90
24632;DHT22;59977;48.782;9.190;2024-02-23T04:21:03;7.60;99.90
24632;DHT22;59977;48.782;9.190;2024-02-23T04:23:29;7.60;99.90
24632;DHT22;59977;48.782;9.190;2024-02-23T04:25:54;7.60;99.90
24632;DHT22;59977;48.782;9.190;2024-02-23T04:28:20;7.60;99.90
24632;DHT22;59977;48.782;9.190;2024-02-23T04:30:45;7.60;99.90
24632;DHT22;59977;48.782;9.190;2024-02-23T04:33:11;7.60;99.90
24632;DHT22;59977;48.782;9.190;2024-02-23T04:35:37;7.60;99.90
24632;DHT22;59977;48.782;9.190;2024-02-23T04:38:03;7.60;99.90
24632;DHT22;59977;48.782;9.190;2024-02-23T04:40:29;7.60;99.90
24632;DHT22;59977;48.782;9.190;2024-02-23T04:42:54;7.60;99.90
24632;DHT22;59977;48.782;9.190;2024-02-23T04:45:20;7.60;99.90
24632;DHT22;59977;48.782;9.190;2024-02-23T04:47:45;7.50;99.90
24632;DHT22;59977;48.782;9.190;2024-02-23T04:50:13;8.50;99.90
24632;DHT22;59977;48.782;9.190;2024-02-23T04:52:39;7.50;99.90
24632;DHT22;59977;48.782;9.190;2024-02-23T04:55:05;7.50;99.90
24632;DHT22;59977;48.782;9.190;2024-02-23T04:57:31;7.50;99.90
24632;DHT22;59977;48.782;9.190;2024-02-23T04:59:57;7.40;99.90
24632;DHT22;59977;48.782;9.190;2024-02-23T05:02:29;7.50;99.90
24632;DHT22;59977;48.782;9.190;2024-02-23T05:05:03;7.50;99.90
24632;DHT22;59977;48.782;9.190;2024-02-23T05:07:33;7.40;99.90
24632;DHT22;59977;48.782;9.190;2024-02-23T05:09:59;7.40;99.90
24632;DHT22;59977;48.782;9.190;2024-02-23T05:12:25;7.40;99.90
24632;DHT22;59977;48.782;9.190;2024-02-23T05:14:51;7.90;99.90
24632;DHT22;59977;48.782;9.190;2024-02-23T05:17:17;7.40;99.90
24632;DHT22;59977;48.782;9.190;2024-02-23T05:19:42;7.70;99.90
24632;DHT22;59977;48.782;9.190;2024-02-23T05:22:08;7.60;99.90
24632;DHT22;59977;48.782;9.190;2024-02-23T05:24:34;7.40;99.90
24632;DHT22;59977;48.782;9.190;2024-02-23T05:26:59;7.30;99.90
24632;DHT22;59977;48.782;9.190;2024-02-23T05:29:27;7.30;99.90
24632;DHT22;59977;48.782;9.190;2024-02-23T05:31:53;7.40;99.90
24632;DHT22;59977;48.782;9.190;2024-02-23T05:34:19;7.30;99.90
24632;DHT22;59977;48.782;9.190;2024-02-23T05:36:45;7.50;99.90
24632;DHT22;59977;48.782;9.190;2024-02-23T05:39:12;7.30;99.90
24632;DHT22;59977;48.782;9.190;2024-02-23T05:41:38;7.30;99.90
24632;DHT22;59977;48.782;9.190;2024-02-23T05:44:05;7.40;99.90
24632;DHT22;59977;48.782;9.190;2024-02-23T05:46:34;7.20;99.90
24632;DHT22;59977;48.782;9.190;2024-02-23T05:49:00;7.30;99.90
24632;DHT22;59977;48.782;9.190;2024-02-23T05:51:27;7.30;99.90
24632;DHT22;59977;48.782;9.190;2024-02-23T05:53:54;7.50;99.90
24632;DHT22;59977;48.782;9.190;2024-02-23T05:56:20;7.20;99.90
24632;DHT22;59977;48.782;9.190;2024-02-23T05:58:46;7.20;99.90
24632;DHT22;59977;48.782;9.190;2024-02-23T06:01:11;7.20;99.90
24632;DHT22;59977;48.782;9.190;2024-02-23T06:03:37;7.10;99.90
24632;DHT22;59977;48.782;9.190;2024-02-23T06:06:07;7.10;99.90
24632;DHT22;59977;48.782;9.190;2024-02-23T06:08:33;7.10;99.90
24632;DHT22;59977;48.782;9.190;2024-02-23T06:10:59;7.40;99.90
24632;DHT22;59977;48.782;9.190;2024-02-23T06:13:25;7.10;99.90
24632;DHT22;59977;48.782;9.190;2024-02-23T06:15:51;7.20;99.90
24632;DHT22;59977;48.782;9.190;2024-02-23T06:18:16;7.20;99.90
24632;DHT22;59977;48.782;9.190;2024-02-23T06:20:42;7.20;99.90
24632;DHT22;59977;48.782;9.190;2024-02-23T06:23:07;7.20;99.90
24632;DHT22;59977;48.782;9.190;2024-02-23T06:25:33;7.40;99.90
24632;DHT22;59977;48.782;9.190;2024-02-23T06:27:59;7.30;99.90
24632;DHT22;59977;48.782;9.190;2024-02-23T06:30:24;7.70;99.90
24632;DHT22;59977;48.782;9.190;2024-02-23T06:32:50;8.10;99.90
24632;DHT22;59977;48.782;9.190;2024-02-23T06:35:15;7.30;99.90
24632;DHT22;59977;48.782;9.190;2024-02-23T06:37:41;8.40;99.90
24632;DHT22;59977;48.782;9.190;2024-02-23T06:40:07;7.10;99.90
24632;DHT22;59977;48.782;9.190;2024-02-23T06:42:33;7.10;99.90
24632;DHT22;59977;48.782;9.190;2024-02-23T06:44:59;7.10;99.90
24632;DHT22;59977;48.782;9.190;2024-02-23T06:47:24;7.40;99.90
24632;DHT22;59977;48.782;9.190;2024-02-23T06:49:50;7.40;99.90
24632;DHT22;59977;48.782;9.190;2024-02-23T06:52:16;7.10;99.90
24632;DHT22;59977;48.782;9.190;2024-02-23T06:54:43;7.20;99.90
24632;DHT22;59977;48.782;9.190;2024-02-23T06:57:09;8.10;99.90
24632;DHT22;59977;48.782;9.190;2024-02-23T06:59:34;7.10;99.90
24632;DHT22;59977;48.782;9.190;2024-02-23T07:02:01;7.10;99.90
24632;DHT22;59977;48.782;9.190;2024-02-23T07:04:27;7.10;99.90
24632;DHT22;59977;48.782;9.190;2024-02-23T07:06:54;7.10;99.90
24632;DHT22;59977;48.782;9.190;2024-02-23T07:09:21;7.20;99.90
24632;DHT22;59977;48.782;9.190;2024-02-23T07:11:46;7.20;99.90
24632;DHT22;59977;48.782;9.190;2024-02-23T07:14:12;7.60;99.90
24632;DHT22;59977;48.782;9.190;2024-02-23T07:16:40;7.80;99.90
24632;DHT22;59977;48.782;9.190;2024-02-23T07:19:07;7.30;99.90
24632;DHT22;59977;48.782;9.190;2024-02-23T07:21:33;8.00;99.90
24632;DHT22;59977;48.782;9.190;2024-02-23T07:23:59;8.20;99.90
24632;DHT22;59977;48.782;9.190;2024-02-23T07:26:26;7.30;99.90
24632;DHT22;59977;48.782;9.190;2024-02-23T07:28:53;7.30;99.90
24632;DHT22;59977;48.782;9.190;2024-02-23T07:31:19;7.30;99.90
24632;DHT22;59977;48.782;9.190;2024-02-23T07:33:45;7.40;99.90
24632;DHT22;59977;48.782;9.190;2024-02-23T07:36:16;8.20;99.90
24632;DHT22;59977;48.782;9.190;2024-02-23T07:38:42;7.30;99.90
24632;DHT22;59977;48.782;9.190;2024-02-23T07:41:10;8.10;99.90
24632;DHT22;59977;48.782;9.190;2024-02-23T07:43:36;8.10;99.90
24632;DHT22;59977;48.782;9.190;2024-02-23T07:46:02;7.40;99.90
24632;DHT22;59977;48.782;9.190;2024-02-23T07:48:28;7.40;99.90
24632;DHT22;59977;48.782;9.190;2024-02-23T07:50:53;7.80;99.90
24632;DHT22;59977;48.782;9.190;2024-02-23T07:53:19;7.50;99.90
24632;DHT22;59977;48.782;9.190;2024-02-23T07:55:45;7.50;99.90
24632;DHT22;59977;48.782;9.190;2024-02-23T07:58:10;7.50;99.90
24632;DHT22;59977;48.782;9.190;2024-02-23T08:00:36;7.50;99.90
24632;DHT22;59977;48.782;9.190;2024-02-23T08:03:04;7.40;99.90
24632;DHT22;59977;48.782;9.190;2024-02-23T08:05:29;7.40;99.90
24632;DHT22;59977;48.782;9.190;2024-02-23T08:07:55;7.40;99.90
24632;DHT22;59977;48.782;9.190;2024-02-23T08:10:21;7.70;99.90
24632;DHT22;59977;48.782;9.190;2024-02-23T08:12:47;7.40;99.90
24632;DHT22;59977;48.782;9.190;2024-02-23T08:15:12;7.40;99.90
24632;DHT22;59977;48.782;9.190;2024-02-23T08:17:38;7.80;99.90
24632;DHT22;59977;48.782;9.190;2024-02-23T08:20:04;7.30;99.90
24632;DHT22;59977;48.782;9.190;2024-02-23T08:22:30;7.30;99.90
24632;DHT22;59977;48.782;9.190;2024-02-23T08:24:56;7.30;99.90
24632;DHT22;59977;48.782;9.190;2024-02-23T08:27:22;7.20;99.90
24632;DHT22;59977;48.782;9.190;2024-02-23T08:29:48;7.20;99.90
24632;DHT22;59977;48.782;9.190;2024-02-23T08:32:13;8.10;99.90
24632;DHT22;59977;48.782;9.190;2024-02-23T08:34:39;7.40;99.90
24632;DHT22;59977;48.782;9.190;2024-02-23T08:37:05;7.70;99.90
24632;DHT22;59977;48.782;9.190;2024-02-23T08:39:30;7.30;99.90
24632;DHT22;59977;48.782;9.190;2024-02-23T08:41:56;7.30;99.90
24632;DHT22;59977;48.782;9.190;2024-02-23T08:44:22;7.30;99.90
24632;DHT22;59977;48.782;9.190;2024-02-23T08:46:47;7.40;99.90
24632;DHT22;59977;48.782;9.190;2024-02-23T08:49:14;7.20;99.90
24632;DHT22;59977;48.782;9.190;2024-02-23T08:51:40;7.20;99.90
24632;DHT22;59977;48.782;9.190;2024-02-23T08:54:06;7.20;99.90
24632;DHT22;59977;48.782;9.190;2024-02-23T08:56:42;7.20;99.90
24632;DHT22;59977;48.782;9.190;2024-02-23T08:59:08;7.30;99.90
24632;DHT22;59977;48.782;9.190;2024-02-23T09:01:38;7.40;99.90
24632;DHT22;59977;48.782;9.190;2024-02-23T09:04:04;7.40;99.90
24632;DHT22;59977;48.782;9.190;2024-02-23T09:06:30;7.50;99.90
24632;DHT22;59977;48.782;9.190;2024-02-23T09:08:56;7.40;99.90
24632;DHT22;59977;48.782;9.190;2024-02-23T09:11:22;7.40;99.90
24632;DHT22;59977;48.782;9.190;2024-02-23T09:13:48;8.20;99.90
24632;DHT22;59977;48.782;9.190;2024-02-23T09:16:14;7.40;99.90
24632;DHT22;59977;48.782;9.190;2024-02-23T09:18:40;7.40;99.90
24632;DHT22;59977;48.782;9.190;2024-02-23T09:21:06;7.60;99.90
24632;DHT22;59977;48.782;9.190;2024-02-23T09:23:31;7.40;99.90
24632;DHT22;59977;48.782;9.190;2024-02-23T09:25:59;7.40;99.90
24632;DHT22;59977;48.782;9.190;2024-02-23T09:28:29;7.50;99.90
24632;DHT22;59977;48.782;9.190;2024-02-23T09:30:55;7.40;99.90
24632;DHT22;59977;48.782;9.190;2024-02-23T09:33:21;7.50;99.90
24632;DHT22;59977;48.782;9.190;2024-02-23T09:35:46;7.50;99.90
24632;DHT22;59977;48.782;9.190;2024-02-23T09:38:12;7.70;99.90
24632;DHT22;59977;48.782;9.190;2024-02-23T09:40:39;7.70;99.90
24632;DHT22;59977;48.782;9.190;2024-02-23T09:43:08;7.70;99.90
24632;DHT22;59977;48.782;9.190;2024-02-23T09:45:33;7.70;99.90
24632;DHT22;59977;48.782;9.190;2024-02-23T09:48:00;7.70;99.90
24632;DHT22;59977;48.782;9.190;2024-02-23T09:50:29;7.80;99.90
24632;DHT22;59977;48.782;9.190;2024-02-23T09:52:56;7.90;99.90
24632;DHT22;59977;48.782;9.190;2024-02-23T09:55:23;7.90;99.90
24632;DHT22;59977;48.782;9.190;2024-02-23T09:57:52;8.20;99.90
24632;DHT22;59977;48.782;9.190;2024-02-23T10:00:23;8.10;99.90
24632;DHT22;59977;48.782;9.190;2024-02-23T10:02:49;9.00;99.90
24632;DHT22;59977;48.782;9.190;2024-02-23T10:05:16;8.40;99.90
24632;DHT22;59977;48.782;9.190;2024-02-23T10:07:42;8.60;99.90
24632;DHT22;59977;48.782;9.190;2024-02-23T10:10:10;8.60;99.90
24632;DHT22;59977;48.782;9.190;2024-02-23T10:12:37;8.70;99.90
24632;DHT22;59977;48.782;9.190;2024-02-23T10:15:03;8.70;99.90
24632;DHT22;59977;48.782;9.190;2024-02-23T10:17:32;8.80;99.90
24632;DHT22;59977;48.782;9.190;2024-02-23T10:19:59;8.90;99.90
24632;DHT22;59977;48.782;9.190;2024-02-23T10:22:25;8.90;99.90
24632;DHT22;59977;48.782;9.190;2024-02-23T10:24:51;8.90;99.90
24632;DHT22;59977;48.782;9.190;2024-02-23T10:27:17;8.90;99.90
24632;DHT22;59977;48.782;9.190;2024-02-23T10:29:43;9.10;99.90
24632;DHT22;59977;48.782;9.190;2024-02-23T10:32:14;9.10;99.90
24632;DHT22;59977;48.782;9.190;2024-02-23T10:34:42;9.20;99.90
24632;DHT22;59977;48.782;9.190;2024-02-23T10:37:08;9.20;99.90
24632;DHT22;59977;48.782;9.190;2024-02-23T10:39:37;9.20;99.90
24632;DHT22;59977;48.782;9.190;2024-02-23T10:42:08;9.20;99.90
24632;DHT22;59977;48.782;9.190;2024-02-23T10:44:41;9.10;99.90
24632;DHT22;59977;48.782;9.190;2024-02-23T10:47:07;9.10;99.90
24632;DHT22;59977;48.782;9.190;2024-02-23T10:49:34;9.30;99.90
24632;DHT22;59977;48.782;9.190;2024-02-23T10:52:01;9.20;99.90
24632;DHT22;59977;48.782;9.190;2024-02-23T10:54:28;9.20;99.90
24632;DHT22;59977;48.782;9.190;2024-02-23T10:56:54;9.20;99.90
24632;DHT22;59977;48.782;9.190;2024-02-23T10:59:21;9.10;99.90
24632;DHT22;59977;48.782;9.190;2024-02-23T11:01:55;9.10;99.90
24632;DHT22;59977;48.782;9.190;2024-02-23T11:04:23;9.20;99.90
24632;DHT22;59977;48.782;9.190;2024-02-23T11:06:51;9.30;99.90
24632;DHT22;59977;48.782;9.190;2024-02-23T11:09:21;9.30;99.90
24632;DHT22;59977;48.782;9.190;2024-02-23T11:11:54;9.30;99.90
24632;DHT22;59977;48.782;9.190;2024-02-23T11:14:34;9.40;99.90
24632;DHT22;59977;48.782;9.190;2024-02-23T11:17:02;9.40;99.90
24632;DHT22;59977;48.782;9.190;2024-02-23T11:19:39;9.50;99.90
24632;DHT22;59977;48.782;9.190;2024-02-23T11:22:09;9.60;99.90
24632;DHT22;59977;48.782;9.190;2024-02-23T11:24:42;9.60;99.90
24632;DHT22;59977;48.782;9.190;2024-02-23T11:27:18;9.60;99.90
24632;DHT22;59977;48.782;9.190;2024-02-23T11:29:46;9.60;99.90
24632;DHT22;59977;48.782;9.190;2024-02-23T11:32:18;9.60;99.90
24632;DHT22;59977;48.782;9.190;2024-02-23T11:34:56;9.70;99.90
24632;DHT22;59977;48.782;9.190;2024-02-23T11:37:22;9.70;99.90
24632;DHT22;59977;48.782;9.190;2024-02-23T11:39:48;9.80;99.90
24632;DHT22;59977;48.782;9.190;2024-02-23T11:42:15;9.90;99.90
24632;DHT22;59977;48.782;9.190;2024-02-23T11:44:41;10.00;99.90
24632;DHT22;59977;48.782;9.190;2024-02-23T11:47:10;10.00;99.90
24632;DHT22;59977;48.782;9.190;2024-02-23T11:49:35;10.00;99.90
24632;DHT22;59977;48.782;9.190;2024-02-23T11:52:01;10.10;99.90
24632;DHT22;59977;48.782;9.190;2024-02-23T11:54:27;10.10;99.90
24632;DHT22;59977;48.782;9.190;2024-02-23T11:56:52;10.10;99.90
24632;DHT22;59977;48.782;9.190;2024-02-23T11:59:21;10.10;99.90
24632;DHT22;59977;48.782;9.190;2024-02-23T12:01:47;10.00;99.90
24632;DHT22;59977;48.782;9.190;2024-02-23T12:04:14;10.10;99.90
24632;DHT22;59977;48.782;9.190;2024-02-23T12:06:40;10.00;99.90
24632;DHT22;59977;48.782;9.190;2024-02-23T12:09:06;10.00;99.90
24632;DHT22;59977;48.782;9.190;2024-02-23T12:11:32;10.00;99.90
24632;DHT22;59977;48.782;9.190;2024-02-23T12:14:00;10.00;99.90
24632;DHT22;59977;48.782;9.190;2024-02-23T12:16:33;10.10;99.90
24632;DHT22;59977;48.782;9.190;2024-02-23T12:19:01;10.10;99.90
24632;DHT22;59977;48.782;9.190;2024-02-23T12:21:28;10.10;99.90
24632;DHT22;59977;48.782;9.190;2024-02-23T12:23:53;10.10;99.90
24632;DHT22;59977;48.782;9.190;2024-02-23T12:26:20;10.20;99.90
24632;DHT22;59977;48.782;9.190;2024-02-23T12:28:46;10.20;99.90
24632;DHT22;59977;48.782;9.190;2024-02-23T12:31:12;10.20;99.90
24632;DHT22;59977;48.782;9.190;2024-02-23T12:33:40;10.20;99.90
24632;DHT22;59977;48.782;9.190;2024-02-23T12:36:07;10.10;99.90
24632;DHT22;59977;48.782;9.190;2024-02-23T12:38:35;10.10;99.90
24632;DHT22;59977;48.782;9.190;2024-02-23T12:41:01;10.20;99.90
24632;DHT22;59977;48.782;9.190;2024-02-23T12:43:28;10.30;99.90
24632;DHT22;59977;48.782;9.190;2024-02-23T12:45:57;10.30;99.90
24632;DHT22;59977;48.782;9.190;2024-02-23T12:48:25;10.30;99.90
24632;DHT22;59977;48.782;9.190;2024-02-23T12:50:56;10.30;99.90
24632;DHT22;59977;48.782;9.190;2024-02-23T12:56:08;10.10;99.90
24632;DHT22;59977;48.782;9.190;2024-02-23T12:58:35;10.50;99.90
24632;DHT22;59977;48.782;9.190;2024-02-23T13:01:02;10.00;99.90
24632;DHT22;59977;48.782;9.190;2024-02-23T13:03:28;10.00;99.90
24632;DHT22;59977;48.782;9.190;2024-02-23T13:05:57;10.10;99.90
24632;DHT22;59977;48.782;9.190;2024-02-23T13:08:23;10.20;99.90
24632;DHT22;59977;48.782;9.190;2024-02-23T13:10:50;10.20;99.90
24632;DHT22;59977;48.782;9.190;2024-02-23T13:13:16;10.20;99.90
24632;DHT22;59977;48.782;9.190;2024-02-23T13:15:43;10.30;99.90
24632;DHT22;59977;48.782;9.190;2024-02-23T13:18:09;10.30;99.90
24632;DHT22;59977;48.782;9.190;2024-02-23T13:23:28;10.40;99.90
24632;DHT22;59977;48.782;9.190;2024-02-23T13:26:06;10.50;99.90
24632;DHT22;59977;48.782;9.190;2024-02-23T13:34:24;10.40;99.90
24632;DHT22;59977;48.782;9.190;2024-02-23T13:36:50;10.40;99.90
24632;DHT22;59977;48.782;9.190;2024-02-23T13:39:18;10.40;99.90
24632;DHT22;59977;48.782;9.190;2024-02-23T13:41:46;10.40;99.90
24632;DHT22;59977;48.782;9.190;2024-02-23T13:44:14;10.40;99.90
24632;DHT22;59977;48.782;9.190;2024-02-23T13:46:42;10.40;99.90
24632;DHT22;59977;48.782;9.190;2024-02-23T13:49:14;10.30;99.90
24632;DHT22;59977;48.782;9.190;2024-02-23T13:51:41;9.30;99.90
24632;DHT22;59977;48.782;9.190;2024-02-23T13:54:08;10.40;99.90
24632;DHT22;59977;48.782;9.190;2024-02-23T13:56:35;10.40;99.90
24632;DHT22;59977;48.782;9.190;2024-02-23T13:59:01;10.30;99.90
24632;DHT22;59977;48.782;9.190;2024-02-23T14:01:27;10.40;99.90
24632;DHT22;59977;48.782;9.190;2024-02-23T14:03:52;10.50;99.90
24632;DHT22;59977;48.782;9.190;2024-02-23T14:06:18;10.40;99.90
24632;DHT22;59977;48.782;9.190;2024-02-23T14:08:43;10.40;99.90
24632;DHT22;59977;48.782;9.190;2024-02-23T14:11:10;10.40;99.90
24632;DHT22;59977;48.782;9.190;2024-02-23T14:13:35;10.30;99.90
24632;DHT22;59977;48.782;9.190;2024-02-23T14:16:08;10.30;99.90
24632;DHT22;59977;48.782;9.190;2024-02-23T14:18:34;10.40;99.90
24632;DHT22;59977;48.782;9.190;2024-02-23T14:21:04;10.30;99.90
24632;DHT22;59977;48.782;9.190;2024-02-23T14:23:30;10.60;99.90
24632;DHT22;59977;48.782;9.190;2024-02-23T14:25:55;10.70;99.90
24632;DHT22;59977;48.782;9.190;2024-02-23T14:28:21;10.70;99.90
24632;DHT22;59977;48.782;9.190;2024-02-23T14:30:46;10.80;99.90
24632;DHT22;59977;48.782;9.190;2024-02-23T14:33:13;11.00;99.90
24632;DHT22;59977;48.782;9.190;2024-02-23T14:38:38;11.00;99.90
24632;DHT22;59977;48.782;9.190;2024-02-23T14:41:03;11.40;99.90
24632;DHT22;59977;48.782;9.190;2024-02-23T14:43:29;10.90;99.90
24632;DHT22;59977;48.782;9.190;2024-02-23T14:45:57;11.00;99.90
24632;DHT22;59977;48.782;9.190;2024-02-23T14:48:23;11.20;99.90
24632;DHT22;59977;48.782;9.190;2024-02-23T14:50:48;11.50;99.90
24632;DHT22;59977;48.782;9.190;2024-02-23T14:53:15;11.70;99.90
24632;DHT22;59977;48.782;9.190;2024-02-23T14:55:41;11.40;99.90
24632;DHT22;59977;48.782;9.190;2024-02-23T14:58:07;11.30;99.90
24632;DHT22;59977;48.782;9.190;2024-02-23T15:00:33;11.80;99.90
24632;DHT22;59977;48.782;9.190;2024-02-23T15:02:58;10.90;99.90
24632;DHT22;59977;48.782;9.190;2024-02-23T15:05:24;10.80;99.90
24632;DHT22;59977;48.782;9.190;2024-02-23T15:07:50;10.80;99.90
24632;DHT22;59977;48.782;9.190;2024-02-23T15:10:16;10.50;99.90
24632;DHT22;59977;48.782;9.190;2024-02-23T15:12:41;10.40;99.90
24632;DHT22;59977;48.782;9.190;2024-02-23T15:15:08;10.80;99.90
24632;DHT22;59977;48.782;9.190;2024-02-23T15:17:33;10.30;99.90
24632;DHT22;59977;48.782;9.190;2024-02-23T15:19:59;10.30;99.90
24632;DHT22;59977;48.782;9.190;2024-02-23T15:22:26;10.20;99.90
24632;DHT22;59977;48.782;9.190;2024-02-23T15:24:52;10.20;99.90
24632;DHT22;59977;48.782;9.190;2024-02-23T15:27:21;10.10;99.90
24632;DHT22;59977;48.782;9.190;2024-02-23T15:29:47;10.00;99.90
24632;DHT22;59977;48.782;9.190;2024-02-23T15:32:14;10.40;99.90
24632;DHT22;59977;48.782;9.190;2024-02-23T15:34:42;10.10;99.90
24632;DHT22;59977;48.782;9.190;2024-02-23T15:37:08;10.00;99.90
24632;DHT22;59977;48.782;9.190;2024-02-23T15:39:36;10.10;99.90
24632;DHT22;59977;48.782;9.190;2024-02-23T15:42:02;10.00;99.90
24632;DHT22;59977;48.782;9.190;2024-02-23T15:44:28;10.00;99.90
24632;DHT22;59977;48.782;9.190;2024-02-23T15:46:54;10.00;99.90
24632;DHT22;59977;48.782;9.190;2024-02-23T15:49:19;10.00;99.90
24632;DHT22;59977;48.782;9.190;2024-02-23T15:51:46;9.80;99.90